Time;durP1;ratioP1;P1;durP2;ratioP2;P2;SDS_P1;SDS_P2;PMS_P1;PMS_P2;Temp;Humidity;BMP_temperature;BMP_pressure;BME280_temperature;BME280_humidity;BME280_pressure;Samples;Min_cycle;Max_cycle;Signal;HPM_P1;HPM_P2
2022/10/10 00:02:20;;;;;;;;;25.25;19.50;;;;;15.02;54.45;101024.50;4941928;28;45573;-80
2022/10/10 00:04:46;;;;;;;;;22.75;20.00;;;;;15.12;54.44;101038.47;4942418;28;45426;-80
2022/10/10 00:07:11;;;;;;;;;19.75;16.00;;;;;15.11;54.40;101034.97;4924899;28;45351;-79
2022/10/10 00:09:36;;;;;;;;;19.50;18.75;;;;;15.12;54.62;101019.91;4942384;28;45494;-80
2022/10/10 00:12:02;;;;;;;;;19.75;18.25;;;;;15.19;54.76;101027.75;4942312;28;45352;-80
2022/10/10 00:14:28;;;;;;;;;19.25;17.25;;;;;15.20;54.54;101026.81;4942278;28;45516;-79
2022/10/10 00:16:53;;;;;;;;;20.00;18.25;;;;;15.20;54.31;101029.47;4942044;28;45326;-80
2022/10/10 00:19:19;;;;;;;;;17.50;16.75;;;;;15.21;54.64;101028.59;4924724;28;45332;-79
2022/10/10 00:21:44;;;;;;;;;17.75;16.50;;;;;15.16;55.00;101030.44;4911826;28;46056;-80
2022/10/10 00:24:09;;;;;;;;;18.00;18.00;;;;;15.19;54.67;101024.22;4941595;28;45425;-80
2022/10/10 00:26:35;;;;;;;;;18.75;17.75;;;;;15.24;54.51;101029.44;4924823;28;45459;-80
2022/10/10 00:29:00;;;;;;;;;21.50;15.50;;;;;15.27;54.44;101030.25;4941972;28;45494;-80
2022/10/10 00:31:26;;;;;;;;;22.25;21.00;;;;;15.28;54.82;101023.16;4941759;28;45488;-80
2022/10/10 00:33:51;;;;;;;;;19.50;18.50;;;;;15.19;54.77;101018.91;4954461;28;45309;-80
2022/10/10 00:36:19;;;;;;;;;18.00;17.25;;;;;15.19;55.11;101021.56;4941670;28;45303;-80
2022/10/10 00:38:45;;;;;;;;;19.50;18.50;;;;;15.19;54.87;101014.47;4941510;28;45489;-80
2022/10/10 00:41:10;;;;;;;;;21.75;19.50;;;;;15.18;55.00;101012.75;4941476;28;46071;-80
2022/10/10 00:43:36;;;;;;;;;20.00;20.00;;;;;15.24;55.05;101024.16;4954466;28;45359;-80
2022/10/10 00:46:01;;;;;;;;;20.75;20.25;;;;;15.24;55.11;101016.19;4941610;28;45438;-80
2022/10/10 00:48:30;;;;;;;;;19.50;19.00;;;;;15.14;55.09;101002.22;4941702;28;45430;-79
2022/10/10 00:51:12;;;;;;;;;18.75;17.50;;;;;15.11;54.80;100996.97;4924058;28;47014;-80
2022/10/10 00:53:45;;;;;;;;;19.25;18.50;;;;;15.12;54.81;101012.84;4923972;28;45489;-80
2022/10/10 00:56:13;;;;;;;;;21.75;19.25;;;;;15.12;54.92;101007.53;4948466;28;45294;-80
2022/10/10 00:58:42;;;;;;;;;22.50;19.25;;;;;15.10;55.04;101016.41;4944429;28;45470;-80
2022/10/10 01:01:07;;;;;;;;;18.25;17.25;;;;;15.03;54.94;101002.41;4944253;28;45274;-80
2022/10/10 01:03:33;;;;;;;;;14.75;14.75;;;;;15.05;55.11;101011.22;4944662;28;45274;-80
2022/10/10 01:05:59;;;;;;;;;19.00;16.50;;;;;14.94;54.94;100997.25;4944786;28;45339;-80
2022/10/10 01:08:24;;;;;;;;;19.75;18.25;;;;;14.93;55.26;100999.03;4944660;28;45362;-80
2022/10/10 01:11:16;;;;;;;;;16.00;15.50;;;;;14.97;55.75;101019.31;4939985;28;46996;-80
2022/10/10 01:14:18;;;;;;;;;20.75;18.75;;;;;14.88;55.66;101006.19;4944045;28;45252;-80
2022/10/10 01:17:02;;;;;;;;;17.50;15.75;;;;;14.88;55.57;101013.28;4923943;28;45395;-81
2022/10/10 01:19:56;;;;;;;;;25.75;21.00;;;;;14.86;56.06;101013.31;4932565;28;45268;-79
2022/10/10 01:22:37;;;;;;;;;24.50;20.00;;;;;14.81;55.68;101020.47;4913688;28;47204;-81
2022/10/10 01:25:05;;;;;;;;;19.50;19.25;;;;;14.81;56.08;101006.31;4944476;28;45258;-80
2022/10/10 01:28:12;;;;;;;;;25.00;23.25;;;;;14.77;56.27;101016.09;4944590;28;45458;-81
2022/10/10 01:30:40;;;;;;;;;22.25;21.00;;;;;14.67;55.93;100998.59;4930211;28;45382;-80
2022/10/10 01:33:31;;;;;;;;;22.50;22.00;;;;;14.61;56.40;100991.63;4926735;28;47108;-80
2022/10/10 01:36:10;;;;;;;;;26.50;24.25;;;;;14.69;56.44;101010.06;4944171;28;45327;-80
2022/10/10 01:38:49;;;;;;;;;27.00;23.00;;;;;14.67;56.38;101009.19;4925715;28;45443;-79
2022/10/10 01:41:22;;;;;;;;;19.75;19.25;;;;;14.65;56.52;101011.00;4926774;28;45419;-80
2022/10/10 01:43:55;;;;;;;;;25.50;24.00;;;;;14.59;56.35;101011.97;4944251;28;45525;-80
2022/10/10 01:46:20;;;;;;;;;27.00;25.00;;;;;14.58;56.67;101018.19;4946357;28;45433;-79
2022/10/10 01:48:51;;;;;;;;;27.50;25.75;;;;;14.59;56.51;101016.41;4954693;28;45340;-80
2022/10/10 01:51:19;;;;;;;;;20.75;20.50;;;;;14.57;56.11;101011.16;4942707;28;45538;-80
2022/10/10 01:54:05;;;;;;;;;19.75;19.00;;;;;14.51;56.71;101000.59;4936337;28;47326;-80
2022/10/10 01:56:55;;;;;;;;;24.25;20.50;;;;;14.52;56.70;101008.56;4937419;28;45375;-81
2022/10/10 01:59:42;;;;;;;;;23.75;21.00;;;;;14.49;56.65;101010.34;4943830;28;45484;-80
2022/10/10 02:02:22;;;;;;;;;20.75;20.50;;;;;14.42;56.39;100995.44;4943880;28;45533;-80
2022/10/10 02:05:14;;;;;;;;;21.75;20.75;;;;;14.40;56.54;101002.53;4931297;28;47528;-79
2022/10/10 02:07:52;;;;;;;;;25.25;24.25;;;;;14.37;56.96;101011.41;4910136;28;45605;-81
2022/10/10 02:10:22;;;;;;;;;24.75;21.75;;;;;14.31;56.90;101004.44;4923688;28;45384;-80
2022/10/10 02:12:49;;;;;;;;;24.50;19.75;;;;;14.31;57.07;101000.91;4926426;28;45441;-80
2022/10/10 02:15:21;;;;;;;;;25.75;21.25;;;;;14.23;57.37;100995.72;4956281;28;46411;-81
2022/10/10 02:17:48;;;;;;;;;20.25;18.25;;;;;14.18;57.17;100984.31;4922971;28;45566;-81
2022/10/10 02:20:18;;;;;;;;;25.50;23.00;;;;;14.18;57.55;100980.81;4938266;28;45386;-80
2022/10/10 02:22:45;;;;;;;;;21.50;21.00;;;;;14.27;57.63;101002.75;4931962;28;45546;-80
2022/10/10 02:25:12;;;;;;;;;19.00;17.75;;;;;14.28;57.48;101006.25;4925963;28;47187;-81
2022/10/10 02:27:49;;;;;;;;;23.25;21.00;;;;;14.16;57.79;100986.09;4943574;28;45451;-80
2022/10/10 02:30:16;;;;;;;;;25.75;23.50;;;;;14.18;57.81;100983.44;4943510;28;45517;-80
2022/10/10 02:32:48;;;;;;;;;24.00;19.50;;;;;14.29;58.24;100994.75;4923021;28;45514;-80
2022/10/10 02:35:20;;;;;;;;;19.50;19.25;;;;;14.26;57.91;100990.38;4925213;28;48614;-80
2022/10/10 02:37:48;;;;;;;;;26.00;23.25;;;;;14.25;57.55;100986.00;4925928;28;45599;-80
2022/10/10 02:40:21;;;;;;;;;19.75;19.25;;;;;14.31;58.13;100993.84;4926296;28;45465;-79
2022/10/10 02:42:49;;;;;;;;;21.25;20.00;;;;;14.31;57.58;101001.78;4926284;28;45532;-80
2022/10/10 02:45:16;;;;;;;;;21.75;20.25;;;;;14.32;57.97;100992.06;4926444;28;46791;-80
2022/10/10 02:47:43;;;;;;;;;21.50;20.00;;;;;14.33;58.11;101007.06;4926535;28;45196;-80
2022/10/10 02:50:09;;;;;;;;;15.50;14.75;;;;;14.25;58.18;100990.41;4926661;28;45220;-80
2022/10/10 02:52:34;;;;;;;;;24.50;21.00;;;;;14.31;58.14;101004.44;4943660;28;45569;-79
2022/10/10 02:55:00;;;;;;;;;22.75;19.00;;;;;14.27;58.20;100993.88;4943177;28;45945;-80
2022/10/10 02:57:25;;;;;;;;;28.50;24.50;;;;;14.28;58.31;100999.19;4938867;28;45446;-80
2022/10/10 02:59:50;;;;;;;;;19.00;17.50;;;;;14.31;58.33;101001.78;4926537;28;45360;-80
2022/10/10 03:02:16;;;;;;;;;21.00;19.00;;;;;14.21;58.13;100984.25;4943784;28;45434;-80
2022/10/10 03:04:42;;;;;;;;;22.00;20.50;;;;;14.26;57.83;100987.72;4944154;28;45287;-79
2022/10/10 03:07:07;;;;;;;;;21.00;19.50;;;;;14.32;58.22;101003.50;4926041;28;45437;-80
2022/10/10 03:09:33;;;;;;;;;23.25;21.75;;;;;14.32;58.05;101002.66;4952172;28;45444;-80
2022/10/10 03:11:59;;;;;;;;;21.25;20.50;;;;;14.26;58.39;100994.81;4948297;28;45500;-79
2022/10/10 03:14:24;;;;;;;;;22.00;20.00;;;;;14.33;58.36;101001.78;4943786;28;45358;-79
2022/10/10 03:16:49;;;;;;;;;17.25;14.00;;;;;14.36;57.95;100999.06;4925940;28;45539;-80
2022/10/10 03:19:17;;;;;;;;;17.50;17.50;;;;;14.30;58.48;100989.44;4943199;28;45316;-80
2022/10/10 03:21:43;;;;;;;;;21.25;19.00;;;;;14.39;58.52;101006.09;4930956;28;45471;-80
2022/10/10 03:24:08;;;;;;;;;20.00;17.25;;;;;14.35;58.47;100986.69;4942908;28;46611;-80
2022/10/10 03:26:34;;;;;;;;;21.00;18.75;;;;;14.40;58.47;100994.59;4943594;28;45257;-80
2022/10/10 03:29:01;;;;;;;;;19.50;19.00;;;;;14.28;58.52;100983.28;4926306;28;45214;-80
2022/10/10 03:31:27;;;;;;;;;19.75;18.50;;;;;14.39;58.39;100996.38;4926061;28;45471;-81
2022/10/10 03:33:52;;;;;;;;;18.75;16.75;;;;;14.34;58.40;100980.53;4943061;28;45366;-82
2022/10/10 03:36:18;;;;;;;;;18.50;16.25;;;;;14.43;58.36;100998.06;4942527;28;45352;-80
2022/10/10 03:38:43;;;;;;;;;15.00;14.75;;;;;14.38;58.34;100991.97;4943013;28;45475;-80
2022/10/10 03:41:09;;;;;;;;;16.00;14.25;;;;;14.45;58.46;100993.63;4943023;28;45298;-80
2022/10/10 03:43:34;;;;;;;;;18.75;16.75;;;;;14.44;58.28;100989.22;4942758;28;45398;-81
2022/10/10 03:46:00;;;;;;;;;19.75;18.00;;;;;14.37;58.69;100986.69;4939092;28;45477;-81
2022/10/10 03:48:25;;;;;;;;;18.75;18.00;;;;;14.41;58.46;100986.63;4926514;28;45473;-80
2022/10/10 03:50:50;;;;;;;;;18.25;17.00;;;;;14.42;58.63;100991.00;4942951;28;45445;-81
2022/10/10 03:53:16;;;;;;;;;18.50;16.50;;;;;14.36;58.82;100982.31;4942952;28;45269;-81
2022/10/10 03:55:41;;;;;;;;;20.50;16.00;;;;;14.45;58.84;100998.03;4942854;28;45237;-81
2022/10/10 03:58:08;;;;;;;;;16.00;14.50;;;;;14.47;58.67;100999.78;4943060;28;45476;-81
2022/10/10 04:00:34;;;;;;;;;19.00;18.50;;;;;14.48;58.73;101000.63;4942594;28;45311;-81
2022/10/10 04:03:04;;;;;;;;;18.00;15.00;;;;;14.47;58.79;100994.47;4925105;28;47268;-81
2022/10/10 04:05:35;;;;;;;;;15.00;14.75;;;;;14.48;58.91;100993.56;4942080;28;45465;-81
2022/10/10 04:08:01;;;;;;;;;18.00;17.00;;;;;14.52;59.01;100990.00;4951084;28;45212;-81
2022/10/10 04:10:26;;;;;;;;;17.00;16.75;;;;;14.49;58.58;100990.03;4927821;28;45597;-81
2022/10/10 04:12:52;;;;;;;;;20.25;17.75;;;;;14.55;58.97;100989.09;4941729;28;45493;-81
2022/10/10 04:15:17;;;;;;;;;13.50;12.25;;;;;14.58;58.75;100990.81;4924177;28;45361;-81
2022/10/10 04:17:43;;;;;;;;;14.50;13.25;;;;;14.47;58.73;100967.97;4942120;28;45448;-81
2022/10/10 04:20:08;;;;;;;;;15.00;13.75;;;;;14.48;58.81;100964.41;4941521;28;45315;-81
2022/10/10 04:22:34;;;;;;;;;16.00;15.00;;;;;14.50;59.13;100975.88;4911585;28;47213;-80
2022/10/10 04:24:59;;;;;;;;;14.25;13.25;;;;;14.49;59.13;100981.22;4941774;28;45372;-81
2022/10/10 04:27:25;;;;;;;;;14.00;13.50;;;;;14.43;59.32;100971.56;4942047;28;45431;-81
2022/10/10 04:29:50;;;;;;;;;13.00;12.75;;;;;14.54;58.75;100992.63;4941653;28;45414;-81
2022/10/10 04:32:15;;;;;;;;;14.25;12.75;;;;;14.45;59.02;100974.19;4924666;28;47213;-79
2022/10/10 04:34:41;;;;;;;;;15.00;14.50;;;;;14.53;59.14;100997.03;4925964;28;45240;-80
2022/10/10 04:37:06;;;;;;;;;12.00;12.00;;;;;14.44;59.69;100983.94;4942761;28;45471;-79
2022/10/10 04:39:32;;;;;;;;;14.00;14.00;;;;;14.48;59.92;100988.25;4942678;28;45500;-80
2022/10/10 04:41:57;;;;;;;;;14.00;13.75;;;;;14.43;59.60;100976.00;4949067;28;46052;-81
2022/10/10 04:44:22;;;;;;;;;13.75;13.25;;;;;14.55;59.32;100991.75;4931135;28;45919;-80
2022/10/10 04:46:48;;;;;;;;;13.00;12.75;;;;;14.59;59.63;100997.84;4925404;28;45332;-80
2022/10/10 04:49:14;;;;;;;;;14.25;13.75;;;;;14.60;59.93;101003.13;4942553;28;45469;-81
2022/10/10 04:51:39;;;;;;;;;13.25;11.00;;;;;14.65;59.70;101000.38;4942745;28;46483;-80
2022/10/10 04:54:05;;;;;;;;;15.75;14.25;;;;;14.64;59.93;100998.66;4925161;28;45202;-80
2022/10/10 04:56:30;;;;;;;;;16.50;16.50;;;;;14.64;59.70;100994.22;4936744;28;45430;-80
2022/10/10 04:58:56;;;;;;;;;13.50;12.00;;;;;14.65;59.35;100988.03;4925039;28;45570;-81
2022/10/10 05:01:21;;;;;;;;;15.75;13.50;;;;;14.73;59.62;100991.44;4953371;28;45347;-81
2022/10/10 05:03:47;;;;;;;;;11.75;11.75;;;;;14.69;59.79;100975.59;4942012;28;45480;-81
2022/10/10 05:06:12;;;;;;;;;12.25;11.25;;;;;14.71;60.02;100974.69;4953515;28;45603;-81
2022/10/10 05:08:37;;;;;;;;;15.00;13.00;;;;;14.69;59.72;100968.53;4921413;28;45443;-81
2022/10/10 05:11:03;;;;;;;;;13.50;12.75;;;;;14.80;60.21;100986.88;4940980;28;46145;-81
2022/10/10 05:13:28;;;;;;;;;16.25;14.25;;;;;14.72;60.24;100973.75;4937375;28;45665;-81
2022/10/10 05:15:54;;;;;;;;;14.75;11.75;;;;;14.77;60.13;100995.78;4941220;28;45978;-81
2022/10/10 05:18:20;;;;;;;;;15.50;14.50;;;;;14.77;60.29;100993.13;4921377;28;45510;-81
2022/10/10 05:20:48;;;;;;;;;14.25;13.25;;;;;14.71;60.00;100981.75;4935920;28;45456;-80
2022/10/10 05:23:15;;;;;;;;;13.00;13.00;;;;;14.66;59.81;100978.31;4916005;28;45260;-81
2022/10/10 05:25:48;;;;;;;;;23.25;21.75;;;;;14.69;60.42;100988.84;4941030;28;45478;-81
2022/10/10 05:28:14;;;;;;;;;11.50;11.00;;;;;14.74;60.08;100987.00;4940962;28;45531;-81
2022/10/10 05:30:39;;;;;;;;;9.50;7.25;;;;;14.63;60.26;100976.59;4910777;28;47203;-80
2022/10/10 05:33:05;;;;;;;;;12.75;12.00;;;;;14.67;60.17;100978.28;4923478;28;45246;-81
2022/10/10 05:35:30;;;;;;;;;11.75;11.75;;;;;14.70;60.01;100996.78;4941246;28;45174;-81
2022/10/10 05:37:56;;;;;;;;;13.25;12.75;;;;;14.70;60.45;100990.59;4940382;28;45568;-81
2022/10/10 05:40:21;;;;;;;;;11.25;11.00;;;;;14.63;60.39;100975.72;4923389;28;46171;-80
2022/10/10 05:42:47;;;;;;;;;11.50;11.50;;;;;14.62;60.55;100976.59;4926175;28;45348;-80
2022/10/10 05:45:12;;;;;;;;;13.00;11.50;;;;;14.61;60.38;100982.81;4926598;28;45365;-81
2022/10/10 05:47:38;;;;;;;;;12.00;11.75;;;;;14.55;60.37;100966.13;4956635;28;45385;-82
2022/10/10 05:50:04;;;;;;;;;12.00;12.00;;;;;14.61;60.30;100966.91;4923333;28;45462;-83
2022/10/10 05:52:30;;;;;;;;;14.25;12.25;;;;;14.60;60.82;100976.66;4936954;28;45433;-82
2022/10/10 05:54:55;;;;;;;;;34.00;29.25;;;;;14.62;60.77;100976.59;4944172;28;45358;-81
2022/10/10 05:57:21;;;;;;;;;16.25;14.50;;;;;14.56;61.09;100954.59;4938490;28;45442;-82
2022/10/10 05:59:46;;;;;;;;;13.25;11.75;;;;;14.53;61.06;100952.00;4944055;28;45232;-84
2022/10/10 06:02:12;;;;;;;;;12.25;11.25;;;;;14.65;60.83;100968.59;4940670;28;45242;-83
2022/10/10 06:04:39;;;;;;;;;15.25;11.25;;;;;14.63;60.73;100976.59;4956161;28;45467;-83
2022/10/10 06:07:04;;;;;;;;;12.25;11.00;;;;;14.69;60.79;100976.47;4924115;28;45499;-83
2022/10/10 06:09:30;;;;;;;;;12.00;12.00;;;;;14.69;61.20;100984.44;4943018;28;46318;-82
2022/10/10 06:11:55;;;;;;;;;19.50;15.00;;;;;14.74;60.73;100987.88;4926271;28;45836;-82
2022/10/10 06:14:21;;;;;;;;;17.25;14.50;;;;;14.75;61.42;100994.94;4926756;28;45334;-82
2022/10/10 06:16:46;;;;;;;;;14.25;12.00;;;;;14.76;60.97;101001.97;4943532;28;45440;-81
2022/10/10 06:19:11;;;;;;;;;13.00;11.00;;;;;14.69;61.37;100981.78;4943711;28;45377;-82
2022/10/10 06:21:37;;;;;;;;;12.50;11.00;;;;;14.77;61.43;100997.56;4914399;28;46239;-83
2022/10/10 06:24:02;;;;;;;;;13.00;11.25;;;;;14.83;61.39;100997.44;4942397;28;45443;-80
2022/10/10 06:26:28;;;;;;;;;11.25;10.00;;;;;14.77;61.40;100982.50;4925637;28;45572;-80
2022/10/10 06:28:53;;;;;;;;;14.25;12.75;;;;;14.92;61.21;101001.72;4942912;28;45595;-80
2022/10/10 06:31:19;;;;;;;;;14.25;13.25;;;;;14.96;61.21;101006.94;4941113;28;45744;-80
2022/10/10 06:33:45;;;;;;;;;13.50;12.50;;;;;15.03;61.16;101013.00;4950153;28;45375;-80
2022/10/10 06:36:15;;;;;;;;;15.25;15.25;;;;;15.10;61.25;101012.00;4942815;28;45501;-81
2022/10/10 06:38:42;;;;;;;;;14.75;13.00;;;;;15.06;60.77;101005.00;4942558;28;46497;-80
2022/10/10 06:41:09;;;;;;;;;15.00;13.25;;;;;15.19;60.72;101011.81;4925410;28;45498;-80
2022/10/10 06:43:35;;;;;;;;;13.25;13.25;;;;;15.13;61.15;100998.69;4925645;28;45406;-81
2022/10/10 06:46:01;;;;;;;;;16.00;12.25;;;;;15.20;60.79;101000.31;4954207;28;45566;-82
2022/10/10 06:48:29;;;;;;;;;17.00;15.00;;;;;15.22;60.69;100990.53;4933572;28;48385;-82
2022/10/10 06:50:56;;;;;;;;;15.50;14.50;;;;;15.39;60.76;101018.53;4930439;28;45250;-81
2022/10/10 06:53:21;;;;;;;;;15.25;13.50;;;;;15.40;60.84;101015.00;4942636;28;45395;-82
2022/10/10 06:55:47;;;;;;;;;15.50;13.00;;;;;15.54;60.44;101018.25;4918600;28;45531;-82
2022/10/10 06:58:17;;;;;;;;;15.50;14.00;;;;;15.61;60.59;101018.97;4939553;28;47929;-82
2022/10/10 07:00:49;;;;;;;;;14.75;14.25;;;;;15.73;60.46;101024.06;4923401;28;45577;-82
2022/10/10 07:03:27;;;;;;;;;17.50;14.75;;;;;15.78;60.27;101027.50;4942081;28;45353;-83
2022/10/10 07:06:09;;;;;;;;;13.50;13.00;;;;;15.98;60.12;101048.31;4940780;28;45326;-83
2022/10/10 07:08:38;;;;;;;;;15.75;14.00;;;;;15.96;60.32;101044.84;4937500;28;46916;-84
2022/10/10 07:11:07;;;;;;;;;13.75;12.00;;;;;16.10;59.87;101066.66;4912707;28;45221;-83
2022/10/10 07:13:35;;;;;;;;;15.00;14.00;;;;;16.15;59.56;101069.22;4938723;28;45490;-84
2022/10/10 07:16:00;;;;;;;;;16.00;13.00;;;;;16.20;59.49;101070.00;4925288;28;45559;-83
2022/10/10 07:18:26;;;;;;;;;13.00;13.00;;;;;16.21;59.39;101062.91;4938617;28;46944;-84
2022/10/10 07:20:58;;;;;;;;;13.25;12.25;;;;;16.20;59.64;101051.41;4936756;28;45256;-84
2022/10/10 07:23:25;;;;;;;;;14.00;11.50;;;;;16.24;59.35;101052.22;4919805;28;45500;-83
2022/10/10 07:25:51;;;;;;;;;11.50;10.75;;;;;16.25;59.20;101057.50;4925228;28;45720;-82
2022/10/10 07:28:17;;;;;;;;;13.75;13.00;;;;;16.34;59.20;101068.84;4922034;28;47101;-83
2022/10/10 07:30:44;;;;;;;;;13.75;13.25;;;;;16.35;59.16;101065.25;4924774;28;45621;-83
2022/10/10 07:33:13;;;;;;;;;13.50;13.50;;;;;16.39;59.04;101058.97;4942005;28;45257;-82
2022/10/10 07:35:39;;;;;;;;;11.25;11.00;;;;;16.43;59.44;101057.97;4942895;28;45435;-81
2022/10/10 07:38:05;;;;;;;;;13.50;11.25;;;;;16.49;59.43;101061.38;4923992;28;47828;-82
2022/10/10 07:40:31;;;;;;;;;13.50;13.25;;;;;16.50;59.34;101056.94;4924901;28;46229;-81
2022/10/10 07:42:56;;;;;;;;;13.50;13.00;;;;;16.56;59.07;101054.13;4923085;28;45226;-81
2022/10/10 07:45:21;;;;;;;;;12.25;10.25;;;;;16.66;59.11;101074.28;4942098;28;45483;-81
2022/10/10 07:47:47;;;;;;;;;12.75;11.50;;;;;16.66;59.00;101070.75;4941837;28;45480;-81
2022/10/10 07:50:12;;;;;;;;;11.00;11.00;;;;;16.69;58.85;101070.69;4942298;28;45188;-82
2022/10/10 07:52:39;;;;;;;;;13.25;13.25;;;;;16.68;58.74;101072.47;4941776;28;45290;-81
2022/10/10 07:55:06;;;;;;;;;13.50;11.00;;;;;16.76;58.84;101081.13;4924536;28;45329;-81
2022/10/10 07:57:33;;;;;;;;;14.75;13.25;;;;;16.76;58.78;101077.59;4924188;28;47984;-81
2022/10/10 08:00:01;;;;;;;;;13.25;11.75;;;;;16.83;59.02;101081.88;4924514;28;45424;-81
2022/10/10 08:02:27;;;;;;;;;22.75;22.50;;;;;16.78;58.87;101070.47;4941675;28;45418;-80
2022/10/10 08:04:52;;;;;;;;;17.25;15.25;;;;;16.77;59.00;101074.06;4936620;28;45461;-81
2022/10/10 08:07:18;;;;;;;;;18.50;17.50;;;;;16.83;59.01;101065.91;4937594;28;46070;-80
2022/10/10 08:09:44;;;;;;;;;16.75;14.00;;;;;16.80;58.90;101065.13;4941006;28;45787;-79
2022/10/10 08:12:09;;;;;;;;;14.75;13.25;;;;;16.83;59.01;101071.22;4923944;28;45299;-81
2022/10/10 08:14:34;;;;;;;;;13.75;11.50;;;;;16.89;58.64;101080.84;4934401;28;45639;-81
2022/10/10 08:17:00;;;;;;;;;9.50;9.50;;;;;16.88;58.92;101079.97;4939777;28;47196;-81
2022/10/10 08:19:25;;;;;;;;;11.00;10.50;;;;;16.89;58.86;101086.16;4924169;28;45284;-84
2022/10/10 08:22:00;;;;;;;;;14.50;12.75;;;;;16.94;58.94;101084.28;4911368;28;45419;-85
2022/10/10 08:24:43;;;;;;;;;12.50;12.50;;;;;16.99;58.86;101093.00;4937093;28;45573;-83
2022/10/10 08:27:47;;;;;;;;;13.50;11.00;;;;;17.04;58.95;101099.09;4922159;28;46954;-85
2022/10/10 08:30:40;;;;;;;;;18.00;15.75;;;;;17.04;58.81;101104.41;4902490;29;45277;-92
2022/10/10 08:36:47;;;;;;;;;12.50;12.50;;;;;16.95;58.75;101112.63;4855912;29;45561;-84
2022/10/10 08:39:35;;;;;;;;;17.50;14.00;;;;;17.00;58.94;101131.13;4851417;29;46212;-87
2022/10/10 08:42:02;;;;;;;;;13.75;12.75;;;;;16.95;59.04;101126.81;4829788;29;45502;-87
2022/10/10 08:44:38;;;;;;;;;13.25;12.25;;;;;16.95;59.05;101132.13;4912531;28;45342;-87
2022/10/10 08:47:14;;;;;;;;;17.75;14.25;;;;;16.97;59.34;101137.38;4925114;28;45503;-85
2022/10/10 08:49:39;;;;;;;;;12.00;12.00;;;;;16.95;59.35;101132.13;4956503;28;47611;-83
2022/10/10 08:52:54;;;;;;;;;12.75;9.00;;;;;16.95;59.24;101132.13;4927249;28;45272;-79
2022/10/10 08:55:22;;;;;;;;;13.25;11.25;;;;;17.04;59.63;101133.69;4901878;28;45456;-81
2022/10/10 08:57:57;;;;;;;;;9.50;8.75;;;;;17.03;59.70;101118.63;4941981;28;45399;-82
2022/10/10 09:00:32;;;;;;;;;8.75;8.75;;;;;17.11;59.84;101121.13;4941394;28;46676;-81
2022/10/10 09:03:01;;;;;;;;;8.75;8.75;;;;;17.16;59.69;101136.06;4945098;28;45514;-80
2022/10/10 09:06:09;;;;;;;;;11.75;10.00;;;;;17.23;59.72;101123.47;4944710;28;45371;-83
2022/10/10 09:08:49;;;;;;;;;8.00;7.75;;;;;17.38;59.74;101139.03;4921646;28;45510;-83
2022/10/10 09:11:43;;;;;;;;;13.50;10.75;;;;;17.48;59.49;101144.13;4939450;28;46678;-82
2022/10/10 09:14:24;;;;;;;;;9.00;8.00;;;;;17.56;59.55;101150.13;4929213;28;45559;-82
2022/10/10 09:16:59;;;;;;;;;12.00;11.00;;;;;17.72;59.50;101150.59;4945296;28;45241;-80
2022/10/10 09:19:46;;;;;;;;;10.25;9.50;;;;;17.90;59.21;101143.91;4930350;28;45803;-82
2022/10/10 09:22:23;;;;;;;;;10.00;8.00;;;;;18.00;58.80;101148.94;4943510;28;45568;-81
2022/10/10 09:24:57;;;;;;;;;10.75;9.00;;;;;18.17;58.56;101147.59;4925663;28;45485;-82
2022/10/10 09:27:40;;;;;;;;;;;;;;;;;;;;;
2022/10/10 09:30:16;;;;;;;;;10.25;8.75;;;;;18.51;57.92;101147.47;4941726;28;72596;-81
2022/10/10 09:33:08;;;;;;;;;10.50;9.75;;;;;18.65;57.40;101145.25;4929192;28;47434;-82
2022/10/10 09:35:37;;;;;;;;;11.50;10.00;;;;;18.88;57.68;101154.38;4914138;28;45639;-81
2022/10/10 09:38:09;;;;;;;;;12.25;11.00;;;;;19.06;57.28;101166.25;4924852;28;45466;-82
2022/10/10 09:40:45;;;;;;;;;10.25;10.25;;;;;19.18;56.78;101174.75;4943607;28;45462;-82
2022/10/10 09:43:16;;;;;;;;;11.25;11.00;;;;;19.31;56.64;101185.91;4955487;28;46759;-81
2022/10/10 09:46:04;;;;;;;;;11.25;10.75;;;;;19.37;56.05;101185.69;4942390;28;45370;-80
2022/10/10 09:48:36;;;;;;;;;10.50;9.75;;;;;19.34;56.29;101193.81;4938014;28;45446;-80
2022/10/10 09:51:07;;;;;;;;;14.50;10.75;;;;;19.27;55.94;101188.72;4943493;28;45641;-82
2022/10/10 09:53:35;;;;;;;;;10.25;10.00;;;;;19.24;55.93;101194.16;4925213;28;48244;-81
2022/10/10 09:56:03;;;;;;;;;10.50;9.00;;;;;19.16;56.23;101192.63;4937882;28;45473;-79
2022/10/10 09:58:34;;;;;;;;;10.25;8.75;;;;;19.15;56.52;101196.19;4955586;28;45361;-80
2022/10/10 10:01:24;;;;;;;;;10.25;10.25;;;;;19.16;56.46;101197.06;4934137;28;45348;-79
2022/10/10 10:04:15;;;;;;;;;12.25;9.75;;;;;19.17;56.19;101193.50;4926995;28;48456;-80
2022/10/10 10:06:53;;;;;;;;;15.75;10.25;;;;;19.17;56.21;101199.69;4936156;28;45368;-80
2022/10/10 10:09:22;;;;;;;;;8.75;8.25;;;;;19.22;56.63;101209.34;4943090;28;45459;-80
2022/10/10 10:11:54;;;;;;;;;6.75;6.75;;;;;19.23;56.33;101208.44;4945406;28;45454;-80
2022/10/10 10:14:26;;;;;;;;;9.75;9.25;;;;;19.23;56.47;101214.63;4929857;28;46793;-80
2022/10/10 10:17:05;;;;;;;;;7.25;7.25;;;;;19.21;56.44;101212.94;4944431;28;45509;-80
2022/10/10 10:19:34;;;;;;;;;11.75;10.00;;;;;19.21;56.25;101215.63;4943774;28;45266;-81
2022/10/10 10:22:00;;;;;;;;;7.75;7.75;;;;;19.20;56.65;101221.88;4929771;28;45384;-80
2022/10/10 10:24:36;;;;;;;;;9.00;8.00;;;;;19.19;56.46;101231.66;4927414;28;45538;-80
2022/10/10 10:27:10;;;;;;;;;8.25;7.25;;;;;19.23;56.19;101224.44;4929312;28;45352;-80
2022/10/10 10:29:36;;;;;;;;;15.50;11.75;;;;;19.20;56.46;101227.22;4943638;28;45489;-80
2022/10/10 10:32:31;;;;;;;;;9.75;8.00;;;;;19.21;56.17;101215.63;4927468;28;45542;-80
2022/10/10 10:35:26;;;;;;;;;10.25;9.00;;;;;19.24;56.66;101220.84;4952712;28;45594;-81
2022/10/10 10:38:10;;;;;;;;;10.75;10.00;;;;;19.29;56.33;101232.25;4883065;28;45599;-81
2022/10/10 10:40:39;;;;;;;;;9.75;8.25;;;;;19.31;56.35;101225.06;4945256;28;44979;-82
2022/10/10 10:43:35;;;;;;;;;9.00;8.00;;;;;19.33;56.61;101239.25;4940089;28;45145;-82
2022/10/10 10:46:22;;;;;;;;;10.00;7.00;;;;;19.34;56.42;101243.66;4931488;28;47180;-82
2022/10/10 10:49:09;;;;;;;;;7.25;6.75;;;;;19.35;55.90;101248.06;4932629;28;45422;-82
2022/10/10 10:52:06;;;;;;;;;10.25;10.25;;;;;19.38;56.22;101245.31;4943368;28;45545;-81
2022/10/10 10:54:52;;;;;;;;;10.00;9.00;;;;;19.41;56.32;101250.56;4942285;28;45279;-82
2022/10/10 10:57:38;;;;;;;;;8.50;8.50;;;;;19.51;55.78;101259.13;4929190;28;47089;-81
2022/10/10 11:00:08;;;;;;;;;9.00;8.00;;;;;19.60;55.77;101261.53;4941433;28;45471;-81
2022/10/10 11:03:09;;;;;;;;;9.00;8.50;;;;;19.66;56.11;101269.34;4941053;28;45528;-81
2022/10/10 11:05:43;;;;;;;;;13.50;10.00;;;;;19.71;55.82;101267.41;4897897;28;45969;-81
2022/10/10 11:08:32;;;;;;;;;9.75;8.50;;;;;19.82;55.56;101285.75;4924276;28;46017;-81
2022/10/10 11:11:03;;;;;;;;;9.00;8.00;;;;;19.87;55.06;101280.25;4942174;28;45373;-81
2022/10/10 11:13:51;;;;;;;;;13.00;10.75;;;;;19.92;55.40;101283.66;4925557;28;45384;-82
2022/10/10 11:16:38;;;;;;;;;11.00;11.00;;;;;19.99;55.51;101285.16;4924391;28;45838;-80
2022/10/10 11:19:13;;;;;;;;;13.00;13.00;;;;;20.04;55.18;101291.22;4941726;28;45418;-81
2022/10/10 11:22:06;;;;;;;;;13.00;11.50;;;;;20.02;55.36;101301.09;4914535;28;46126;-81
2022/10/10 11:24:50;;;;;;;;;10.50;10.50;;;;;19.99;55.56;101301.19;4936920;28;45736;-81
2022/10/10 11:27:28;;;;;;;;;15.75;10.25;;;;;19.95;55.02;101302.25;4943553;28;45214;-81
2022/10/10 11:30:13;;;;;;;;;7.50;5.75;;;;;19.89;54.86;101311.34;4925985;28;48267;-81
2022/10/10 11:32:51;;;;;;;;;11.50;10.00;;;;;19.78;55.57;101310.81;4947121;28;45414;-80
2022/10/10 11:35:43;;;;;;;;;10.50;9.00;;;;;19.68;55.70;101306.72;4942577;28;45417;-80